createdAt,value
2023-03-04T00:00:33.836Z,20.4
2023-03-04T00:05:34.288Z,20.2
2023-03-04T00:10:35.009Z,20.3
2023-03-04T00:15:35.539Z,20.3
2023-03-04T00:20:36.146Z,20.3
2023-03-04T00:25:36.456Z,20.3
2023-03-04T00:30:36.935Z,20.3
2023-03-04T00:35:37.533Z,20.3
2023-03-04T00:40:38.010Z,20.3
2023-03-04T00:45:41.423Z,20.3
2023-03-04T00:50:41.389Z,20.3
2023-03-04T00:55:42.465Z,20
2023-03-04T01:00:43.063Z,20.3
2023-03-04T01:05:43.620Z,20.2
2023-03-04T01:10:44.153Z,20.2
2023-03-04T01:15:44.683Z,20
2023-03-04T01:20:44.083Z,20.2
2023-03-04T01:25:44.882Z,20.2
2023-03-04T01:30:45.507Z,20.2
2023-03-04T01:35:46.135Z,20.1
2023-03-04T01:40:46.676Z,20.2
2023-03-04T01:45:47.275Z,20.1
2023-03-04T01:50:47.835Z,20.2
2023-03-04T01:55:48.482Z,20.1
2023-03-04T02:00:49.230Z,20.1
2023-03-04T02:05:49.720Z,20.3
2023-03-04T02:10:50.272Z,20.2
2023-03-04T02:15:53.809Z,20.1
2023-03-04T02:20:56.630Z,20.2
2023-03-04T02:25:56.855Z,20
2023-03-04T02:30:57.488Z,20.1
2023-03-04T02:35:58.708Z,20.1
2023-03-04T02:40:59.142Z,20.1
2023-03-04T02:45:59.755Z,20.1
2023-03-04T02:51:00.261Z,20.3
2023-03-04T02:56:00.878Z,20.1
2023-03-04T03:01:01.284Z,20.2
2023-03-04T03:06:04.670Z,20.2
2023-03-04T03:11:04.594Z,20.1
2023-03-04T03:16:05.114Z,20.1
2023-03-04T03:21:05.888Z,20.1
2023-03-04T03:26:06.432Z,20.1
2023-03-04T03:31:07.053Z,20.1
2023-03-04T03:36:07.493Z,20.1
2023-03-04T03:41:08.056Z,20.1
2023-03-04T03:46:08.877Z,20
2023-03-04T03:51:09.233Z,20.1
2023-03-04T03:56:09.498Z,20.1
2023-03-04T04:01:09.923Z,20.1
2023-03-04T04:06:10.487Z,20.1
2023-03-04T04:11:11.107Z,20
2023-03-04T04:16:11.745Z,20
2023-03-04T04:21:12.521Z,20.1
2023-03-04T04:26:13.224Z,20.1
2023-03-04T04:31:16.630Z,20.1
2023-03-04T04:36:16.624Z,20
2023-03-04T04:41:17.233Z,20
2023-03-04T04:46:17.793Z,20.1
2023-03-04T04:51:18.487Z,19.9
2023-03-04T04:56:22.021Z,19.9
2023-03-04T05:01:22.105Z,19.9
2023-03-04T05:06:22.647Z,20
2023-03-04T05:11:23.064Z,20.1
2023-03-04T05:16:26.399Z,20
2023-03-04T05:21:26.712Z,20
2023-03-04T05:26:29.813Z,19.9
2023-03-04T05:31:29.995Z,19.8
2023-03-04T05:36:30.601Z,20
2023-03-04T05:41:30.991Z,20
2023-03-04T05:46:33.490Z,20.1
2023-03-04T05:51:31.773Z,20.1
2023-03-04T05:56:32.451Z,20
2023-03-04T06:01:33.190Z,20
2023-03-04T06:06:36.621Z,20.1
2023-03-04T06:11:36.680Z,20.1
2023-03-04T06:16:37.158Z,20
2023-03-04T06:21:37.865Z,19.9
2023-03-04T06:26:38.399Z,20
2023-03-04T06:31:39.290Z,20
2023-03-04T06:36:39.598Z,20
2023-03-04T06:41:40.093Z,20
2023-03-04T06:46:40.654Z,20
2023-03-04T06:51:42.702Z,20
2023-03-04T06:56:45.758Z,20
2023-03-04T07:01:45.824Z,20.1
2023-03-04T07:06:46.543Z,20
2023-03-04T07:11:46.893Z,20.1
2023-03-04T07:16:47.442Z,20.1
2023-03-04T07:21:47.980Z,20
2023-03-04T07:26:48.382Z,20.1
2023-03-04T07:31:51.028Z,19.8
2023-03-04T07:36:49.810Z,20.1
2023-03-04T07:41:50.353Z,20
2023-03-04T07:46:50.864Z,20.1
2023-03-04T07:51:51.484Z,20.1
2023-03-04T07:56:52.014Z,19.9
2023-03-04T08:01:52.408Z,20
2023-03-04T08:06:52.983Z,20
2023-03-04T08:11:53.935Z,20
2023-03-04T08:16:55.017Z,19.9
2023-03-04T08:21:55.240Z,20
2023-03-04T08:26:55.843Z,20
2023-03-04T08:31:56.733Z,20
2023-03-04T08:36:57.108Z,20
2023-03-04T08:41:57.744Z,19.8
2023-03-04T08:46:58.344Z,20
2023-03-04T08:51:59.140Z,19.8
2023-03-04T08:56:59.633Z,20
2023-03-04T09:02:00.078Z,19.6
2023-03-04T09:07:00.769Z,19.8
2023-03-04T09:12:01.165Z,20
2023-03-04T09:17:01.680Z,20.1
2023-03-04T09:22:02.209Z,20.1
2023-03-04T09:27:02.716Z,20
2023-03-04T09:32:03.204Z,20.1
2023-03-04T09:37:03.822Z,20.1
2023-03-04T09:42:04.239Z,20.2
2023-03-04T09:47:05.001Z,20.1
2023-03-04T09:52:05.577Z,20.2
2023-03-04T09:57:06.021Z,20.3
2023-03-04T10:02:06.505Z,20.3
2023-03-04T10:07:07.080Z,20.4
2023-03-04T10:12:07.803Z,20.2
2023-03-04T10:17:08.261Z,20.3
2023-03-04T10:22:08.822Z,20.3
2023-03-04T10:27:09.458Z,20.4
2023-03-04T10:32:09.757Z,20.4
2023-03-04T10:37:10.112Z,20.5
2023-03-04T10:42:13.188Z,20.4
2023-03-04T10:47:16.053Z,20.2
2023-03-04T10:52:15.342Z,20.5
2023-03-04T10:57:15.686Z,20.4
2023-03-04T11:02:18.712Z,20.6
2023-03-04T11:07:18.796Z,20.7
2023-03-04T11:12:22.007Z,20.6
2023-03-04T11:17:24.644Z,20.7
2023-03-04T11:22:24.483Z,20.8
2023-03-04T11:27:24.901Z,20.9
2023-03-04T11:32:25.467Z,20.9
2023-03-04T11:37:25.938Z,20.8
2023-03-04T11:42:26.272Z,20.9
2023-03-04T11:47:26.706Z,21
2023-03-04T11:52:27.929Z,21
2023-03-04T11:57:28.518Z,21
2023-03-04T12:02:29.069Z,20.9
2023-03-04T12:07:29.571Z,21
2023-03-04T12:12:30.174Z,20.9
2023-03-04T12:17:30.799Z,21.1
2023-03-04T12:22:31.147Z,21.1
2023-03-04T12:27:31.566Z,21.2
2023-03-04T12:32:34.880Z,21.2
2023-03-04T12:37:35.671Z,21.2
2023-03-04T12:42:37.549Z,21.4
2023-03-04T12:47:37.697Z,21.4
2023-03-04T12:52:38.156Z,21.3
2023-03-04T12:57:38.724Z,21.3
2023-03-04T13:02:39.561Z,21.3
2023-03-04T13:07:40.052Z,21.5
2023-03-04T13:12:40.484Z,21.4
2023-03-04T13:17:43.207Z,21.5
2023-03-04T13:22:41.556Z,21.6
2023-03-04T13:27:41.970Z,21.5
2023-03-04T13:32:45.172Z,21.5
2023-03-04T13:37:44.971Z,21.6
2023-03-04T13:42:45.523Z,21.5
2023-03-04T13:47:45.970Z,21.6
2023-03-04T13:52:46.624Z,21.5
2023-03-04T13:57:47.060Z,21.6
2023-03-04T14:02:47.437Z,21.6
2023-03-04T14:07:47.887Z,21.6
2023-03-04T14:12:55.234Z,21.6
2023-03-04T14:17:54.709Z,21.6
2023-03-04T14:22:55.094Z,21.6
2023-03-04T14:27:55.433Z,21.5
2023-03-04T14:32:55.934Z,21.7
2023-03-04T14:37:56.525Z,21.8
2023-03-04T14:42:56.974Z,21.6
2023-03-04T14:47:57.686Z,21.6
2023-03-04T14:52:58.123Z,21.5
2023-03-04T14:58:01.373Z,21.6
2023-03-04T15:03:01.416Z,21.6
2023-03-04T15:08:01.944Z,21.8
2023-03-04T15:13:02.354Z,21.6
2023-03-04T15:18:02.928Z,21.7
2023-03-04T15:23:05.828Z,21.7
2023-03-04T15:28:08.597Z,21.9
2023-03-04T15:33:11.141Z,21.8
2023-03-04T15:38:11.295Z,22
2023-03-04T15:43:11.533Z,21.9
2023-03-04T15:48:11.973Z,21.9
2023-03-04T15:53:12.473Z,21.9
2023-03-04T15:58:13.050Z,21.6
2023-03-04T16:03:13.524Z,22
2023-03-04T16:08:13.997Z,22
2023-03-04T16:13:14.235Z,22
2023-03-04T16:18:14.751Z,22.1
2023-03-04T16:23:15.060Z,22.1
2023-03-04T16:28:15.509Z,22
2023-03-04T16:33:15.877Z,22.1
2023-03-04T16:38:16.901Z,22
2023-03-04T16:43:20.004Z,22
2023-03-04T16:48:19.879Z,22.1
2023-03-04T16:53:20.284Z,22.1
2023-03-04T16:58:23.631Z,22
2023-03-04T17:03:23.421Z,22.1
2023-03-04T17:08:26.728Z,22.2
2023-03-04T17:13:26.620Z,22.2
2023-03-04T17:18:26.995Z,22.1
2023-03-04T17:23:27.724Z,22.1
2023-03-04T17:28:28.196Z,22.1
2023-03-04T17:33:31.293Z,22.1
2023-03-04T17:38:31.429Z,22
2023-03-04T17:43:31.695Z,22.1
2023-03-04T17:48:32.325Z,22.1
2023-03-04T17:53:36.889Z,22.1
2023-03-04T17:58:36.887Z,22.2
2023-03-04T18:03:38.027Z,22
2023-03-04T18:08:38.228Z,22
2023-03-04T18:13:38.665Z,22
2023-03-04T18:18:39.050Z,21.9
2023-03-04T18:23:39.241Z,22
2023-03-04T18:28:39.698Z,21.8
2023-03-04T18:33:40.198Z,22
2023-03-04T18:38:43.289Z,22
2023-03-04T18:43:46.240Z,21.9
2023-03-04T18:48:46.658Z,21.9
2023-03-04T18:53:46.479Z,21.5
2023-03-04T18:58:46.742Z,21.3
2023-03-04T19:03:47.260Z,21.2
2023-03-04T19:08:50.478Z,21.2
2023-03-04T19:13:50.449Z,21.1
2023-03-04T19:18:50.864Z,21.1
2023-03-04T19:23:51.519Z,21.1
2023-03-04T19:28:52.068Z,21
2023-03-04T19:33:52.651Z,21
2023-03-04T19:38:53.013Z,21.1
2023-03-04T19:43:53.397Z,20.9
2023-03-04T19:48:53.990Z,21
2023-03-04T19:53:54.575Z,21
2023-03-04T19:58:55.048Z,21
2023-03-04T20:03:55.804Z,20.9
2023-03-04T20:08:56.140Z,21
2023-03-04T20:13:56.686Z,20.9
2023-03-04T20:18:57.276Z,21
2023-03-04T20:23:57.781Z,20.8
2023-03-04T20:28:58.310Z,21
2023-03-04T20:33:58.697Z,20.8
2023-03-04T20:39:05.366Z,20.8
2023-03-04T20:43:59.479Z,20.8
2023-03-04T20:48:59.820Z,20.9
2023-03-04T20:54:00.464Z,20.8
2023-03-04T20:59:01.012Z,20.9
2023-03-04T21:04:01.234Z,20.8
2023-03-04T21:09:04.548Z,20.8
2023-03-04T21:14:04.721Z,20.7
2023-03-04T21:19:05.330Z,20.8
2023-03-04T21:24:05.689Z,20.7
2023-03-04T21:29:06.127Z,20.8
2023-03-04T21:34:06.591Z,20.7
2023-03-04T21:39:06.963Z,20.8
2023-03-04T21:44:07.504Z,20.6
2023-03-04T21:49:07.919Z,20.8
2023-03-04T21:54:08.062Z,20.8
2023-03-04T21:59:08.467Z,20.7
2023-03-04T22:04:08.821Z,20.7
2023-03-04T22:09:09.071Z,20.7
2023-03-04T22:14:09.452Z,20.6
2023-03-04T22:19:10.061Z,20.7
2023-03-04T22:24:13.160Z,20.4
2023-03-04T22:29:15.786Z,20.6
2023-03-04T22:34:15.575Z,20.6
2023-03-04T22:39:18.724Z,20.6
2023-03-04T22:44:18.605Z,20.6
2023-03-04T22:49:18.942Z,20.6
2023-03-04T22:54:23.515Z,20.6
2023-03-04T22:59:26.072Z,20.6
2023-03-04T23:04:27.305Z,20.6
2023-03-04T23:09:27.662Z,20.5
2023-03-04T23:14:28.328Z,20.6
2023-03-04T23:19:28.760Z,20.5
2023-03-04T23:24:29.155Z,20.6
2023-03-04T23:29:29.484Z,20.6
2023-03-04T23:34:29.907Z,20.5
2023-03-04T23:39:30.465Z,20.5
2023-03-04T23:44:33.539Z,20.5
2023-03-04T23:49:33.631Z,20.5
2023-03-04T23:54:33.884Z,20.5
2023-03-04T23:59:34.414Z,20.4
